createdAt,value
2023-01-31T00:00:19.389Z,25.25
2023-01-31T00:02:47.487Z,26.63
2023-01-31T00:05:16.022Z,22.85
2023-01-31T00:07:44.491Z,19.42
2023-01-31T00:10:12.848Z,22.80
2023-01-31T00:12:40.872Z,19.63
2023-01-31T00:15:09.930Z,24.05
2023-01-31T00:17:40.030Z,19.42
2023-01-31T00:20:09.446Z,20.58
2023-01-31T00:22:37.763Z,26.00
2023-01-31T00:25:07.195Z,25.67
2023-01-31T00:27:35.295Z,19.10
2023-01-31T00:30:03.793Z,26.95
2023-01-31T00:32:31.752Z,26.67
2023-01-31T00:35:01.119Z,25.20
2023-01-31T00:37:29.136Z,22.23
2023-01-31T00:39:57.156Z,26.95
2023-01-31T00:42:25.161Z,20.33
2023-01-31T00:44:53.152Z,21.98
2023-01-31T00:47:21.162Z,24.23
2023-01-31T00:49:49.144Z,26.35
2023-01-31T00:52:18.543Z,27.85
2023-01-31T00:54:46.740Z,30.88
2023-01-31T00:57:14.716Z,28.02
2023-01-31T00:59:42.757Z,25.98
2023-01-31T01:02:10.838Z,26.45
2023-01-31T01:04:39.015Z,30.83
2023-01-31T01:07:07.097Z,30.05
2023-01-31T01:09:36.581Z,33.42
2023-01-31T01:12:04.879Z,37.97
2023-01-31T01:14:33.129Z,32.65
2023-01-31T01:17:01.092Z,39.70
2023-01-31T01:19:29.094Z,37.00
2023-01-31T01:21:57.291Z,45.95
2023-01-31T01:24:25.363Z,54.75
2023-01-31T01:26:54.848Z,54.70
2023-01-31T01:29:22.974Z,60.50
2023-01-31T01:31:50.982Z,59.38
2023-01-31T01:34:20.080Z,60.60
2023-01-31T01:36:48.321Z,69.88
2023-01-31T01:39:16.555Z,68.60
2023-01-31T01:41:44.968Z,67.05
2023-01-31T01:44:50.131Z,73.35
2023-01-31T01:47:24.302Z,69.57
2023-01-31T01:49:57.039Z,79.72
2023-01-31T01:52:29.770Z,92.43
2023-01-31T01:55:02.221Z,85.28
2023-01-31T01:57:35.362Z,102.78
2023-01-31T02:00:11.965Z,118.88
2023-01-31T02:02:40.199Z,122.68
2023-01-31T02:05:10.592Z,122.47
2023-01-31T02:07:38.833Z,131.15
2023-01-31T02:10:13.536Z,142.63
2023-01-31T02:12:42.112Z,116.47
2023-01-31T02:15:12.363Z,128.27
2023-01-31T02:17:40.652Z,126.45
2023-01-31T02:20:29.076Z,135.45
2023-01-31T02:23:14.244Z,139.60
2023-01-31T02:26:19.845Z,146.38
2023-01-31T02:29:08.352Z,152.38
2023-01-31T02:32:16.708Z,143.13
2023-01-31T02:34:55.191Z,138.68
2023-01-31T02:37:30.636Z,135.63
2023-01-31T02:40:08.766Z,137.40
2023-01-31T02:42:44.123Z,139.82
2023-01-31T02:45:20.085Z,136.07
2023-01-31T02:48:11.469Z,131.95
2023-01-31T02:50:47.828Z,140.00
2023-01-31T02:53:20.310Z,147.65
2023-01-31T02:56:12.291Z,152.30
2023-01-31T02:58:42.505Z,158.57
2023-01-31T03:01:16.172Z,145.60
2023-01-31T03:03:44.944Z,147.15
2023-01-31T03:06:54.771Z,144.63
2023-01-31T03:09:36.649Z,147.38
2023-01-31T03:12:19.507Z,151.85
2023-01-31T03:14:53.449Z,146.00
2023-01-31T03:17:35.175Z,143.68
2023-01-31T03:20:09.178Z,136.27
2023-01-31T03:22:41.875Z,125.05
2023-01-31T03:25:12.879Z,105.75
2023-01-31T03:27:44.666Z,112.72
2023-01-31T03:30:18.586Z,113.13
2023-01-31T03:32:53.783Z,106.72
2023-01-31T03:35:25.060Z,106.35
2023-01-31T03:38:01.848Z,94.28
2023-01-31T03:40:35.025Z,92.55
2023-01-31T03:43:09.172Z,89.00
2023-01-31T03:45:42.676Z,87.88
2023-01-31T03:48:14.731Z,86.15
2023-01-31T03:50:45.981Z,88.03
2023-01-31T03:53:19.943Z,81.05
2023-01-31T03:55:52.255Z,75.60
2023-01-31T04:00:51.178Z,64.85
2023-01-31T04:03:25.243Z,60.58
2023-01-31T04:05:53.746Z,52.92
2023-01-31T04:08:23.488Z,52.35
2023-01-31T04:10:51.866Z,49.55
2023-01-31T04:13:19.920Z,52.70
2023-01-31T04:15:47.998Z,45.38
2023-01-31T04:18:16.043Z,45.25
2023-01-31T04:20:44.122Z,43.08
2023-01-31T04:23:12.647Z,41.53
2023-01-31T04:25:42.227Z,35.05
2023-01-31T04:28:10.234Z,37.58
2023-01-31T04:30:38.669Z,32.55
2023-01-31T04:33:06.681Z,35.72
2023-01-31T04:35:35.288Z,30.05
2023-01-31T04:38:04.365Z,31.52
2023-01-31T04:40:32.941Z,28.98
2023-01-31T04:43:02.797Z,29.60
2023-01-31T04:45:30.891Z,27.27
2023-01-31T04:47:58.903Z,28.35
2023-01-31T04:50:26.909Z,23.85
2023-01-31T04:52:56.027Z,28.65
2023-01-31T04:55:24.065Z,26.85
2023-01-31T04:57:52.085Z,22.80
2023-01-31T05:00:23.044Z,23.42
2023-01-31T05:02:51.382Z,29.60
2023-01-31T05:05:19.900Z,29.83
2023-01-31T05:07:48.253Z,25.77
2023-01-31T05:10:16.468Z,23.13
2023-01-31T05:12:45.260Z,25.83
2023-01-31T05:15:13.304Z,27.88
2023-01-31T05:17:42.735Z,27.45
2023-01-31T05:20:12.181Z,27.35
2023-01-31T05:22:40.440Z,28.75
2023-01-31T05:25:09.167Z,27.15
2023-01-31T05:27:37.208Z,33.20
2023-01-31T05:30:06.632Z,32.60
2023-01-31T05:32:34.906Z,38.20
2023-01-31T05:35:04.482Z,26.40
2023-01-31T05:37:32.571Z,28.15
2023-01-31T05:40:00.608Z,28.13
2023-01-31T05:42:28.917Z,29.33
2023-01-31T05:44:57.778Z,28.15
2023-01-31T05:47:25.790Z,30.40
2023-01-31T05:49:53.783Z,30.90
2023-01-31T05:52:23.244Z,31.60
2023-01-31T05:54:51.499Z,28.02
2023-01-31T05:57:19.555Z,31.60
2023-01-31T05:59:47.740Z,33.50
2023-01-31T06:02:15.867Z,28.08
2023-01-31T06:04:43.952Z,30.80
2023-01-31T06:07:11.949Z,33.00
2023-01-31T06:09:41.922Z,26.77
2023-01-31T06:12:14.552Z,25.13
2023-01-31T06:14:42.611Z,29.73
2023-01-31T06:17:10.676Z,28.13
2023-01-31T06:19:38.705Z,28.63
2023-01-31T06:22:06.729Z,26.38
2023-01-31T06:24:34.850Z,24.60
2023-01-31T06:27:04.473Z,30.17
2023-01-31T06:29:32.921Z,27.77
2023-01-31T06:32:00.988Z,19.40
2023-01-31T06:34:29.046Z,15.45
2023-01-31T06:36:59.055Z,17.50
2023-01-31T06:39:27.253Z,22.15
2023-01-31T06:41:55.612Z,19.98
2023-01-31T06:44:26.601Z,18.95
2023-01-31T06:46:56.011Z,17.40
2023-01-31T06:49:24.198Z,20.55
2023-01-31T06:51:52.230Z,15.73
2023-01-31T06:54:20.417Z,19.17
2023-01-31T06:56:48.767Z,17.63
2023-01-31T06:59:17.170Z,19.40
2023-01-31T07:01:46.875Z,22.67
2023-01-31T07:04:14.953Z,22.10
2023-01-31T07:06:43.155Z,19.90
2023-01-31T07:09:11.977Z,19.85
2023-01-31T07:11:40.537Z,18.90
2023-01-31T07:14:08.787Z,17.42
2023-01-31T07:16:38.078Z,18.02
2023-01-31T07:19:07.798Z,18.40
2023-01-31T07:21:36.982Z,23.45
2023-01-31T07:24:05.506Z,19.85
2023-01-31T07:26:35.163Z,17.30
2023-01-31T07:29:03.417Z,18.70
2023-01-31T07:31:31.649Z,18.17
2023-01-31T07:33:59.942Z,21.13
2023-01-31T07:36:29.959Z,20.08
2023-01-31T07:39:00.038Z,17.83
2023-01-31T07:41:28.373Z,22.48
2023-01-31T07:43:56.506Z,19.48
2023-01-31T07:46:24.565Z,18.60
2023-01-31T07:48:52.620Z,12.30
2023-01-31T07:51:20.885Z,12.95
2023-01-31T07:53:50.758Z,23.23
2023-01-31T07:56:20.546Z,18.65
2023-01-31T07:58:50.579Z,15.02
2023-01-31T08:01:37.855Z,22.83
2023-01-31T08:04:19.960Z,15.77
2023-01-31T08:06:52.038Z,15.05
2023-01-31T08:09:21.735Z,21.75
2023-01-31T08:11:50.120Z,16.92
2023-01-31T08:14:18.114Z,16.73
2023-01-31T08:16:46.195Z,15.85
2023-01-31T08:19:14.322Z,20.55
2023-01-31T08:21:42.306Z,19.85
2023-01-31T08:24:10.847Z,25.02
2023-01-31T08:26:40.261Z,22.77
2023-01-31T08:29:08.288Z,17.95
2023-01-31T08:31:36.413Z,18.52
2023-01-31T08:34:04.518Z,21.40
2023-01-31T08:36:33.055Z,23.65
2023-01-31T08:39:01.535Z,24.30
2023-01-31T08:41:30.777Z,22.52
2023-01-31T08:44:03.448Z,22.05
2023-01-31T08:46:34.048Z,19.52
2023-01-31T08:49:03.088Z,19.15
2023-01-31T08:51:31.551Z,26.50
2023-01-31T08:54:00.656Z,30.52
2023-01-31T08:56:28.974Z,26.70
2023-01-31T08:58:58.373Z,23.42
2023-01-31T09:01:29.034Z,23.27
2023-01-31T09:03:58.152Z,28.88
2023-01-31T09:06:28.900Z,22.70
2023-01-31T09:08:58.637Z,27.80
2023-01-31T09:11:30.211Z,27.45
2023-01-31T09:13:58.622Z,24.08
2023-01-31T09:16:28.948Z,27.83
2023-01-31T09:18:57.753Z,22.73
2023-01-31T09:21:26.996Z,22.52
2023-01-31T09:23:59.389Z,28.75
2023-01-31T09:26:27.585Z,26.67
2023-01-31T09:28:56.156Z,24.08
2023-01-31T09:31:25.162Z,25.25
2023-01-31T09:33:55.820Z,23.23
2023-01-31T09:36:25.202Z,25.05
2023-01-31T09:38:56.323Z,22.30
2023-01-31T09:41:29.881Z,22.73
2023-01-31T09:44:01.348Z,22.90
2023-01-31T09:46:34.777Z,25.63
2023-01-31T09:49:07.673Z,21.75
2023-01-31T09:51:36.788Z,26.60
2023-01-31T09:54:09.161Z,24.75
2023-01-31T09:59:18.215Z,21.33
2023-01-31T10:01:59.063Z,28.17
2023-01-31T10:04:43.723Z,35.05
2023-01-31T10:07:17.369Z,25.60
2023-01-31T10:09:51.219Z,30.30
2023-01-31T10:12:22.719Z,23.60
2023-01-31T10:14:54.919Z,24.10
2023-01-31T10:17:27.342Z,23.92
2023-01-31T10:20:01.212Z,24.20
2023-01-31T10:22:37.184Z,30.00
2023-01-31T10:25:18.532Z,25.20
2023-01-31T10:27:51.354Z,28.05
2023-01-31T10:30:22.426Z,21.80
2023-01-31T10:32:57.048Z,24.70
2023-01-31T10:35:31.779Z,27.45
2023-01-31T10:38:05.509Z,25.67
2023-01-31T10:40:37.081Z,24.52
2023-01-31T10:43:15.360Z,20.40
2023-01-31T10:45:43.603Z,25.42
2023-01-31T10:48:21.974Z,31.25
2023-01-31T10:51:00.496Z,21.27
2023-01-31T10:53:46.196Z,24.08
2023-01-31T10:56:22.987Z,24.52
2023-01-31T10:58:52.083Z,26.52
2023-01-31T11:01:20.433Z,24.23
2023-01-31T11:03:52.151Z,21.52
2023-01-31T11:06:23.217Z,22.92
2023-01-31T11:08:54.618Z,27.70
2023-01-31T11:11:24.017Z,17.83
2023-01-31T11:13:59.081Z,28.70
2023-01-31T11:16:30.967Z,25.05
2023-01-31T11:19:00.732Z,19.38
2023-01-31T11:21:32.855Z,20.10
2023-01-31T11:24:05.028Z,25.02
2023-01-31T11:26:35.253Z,21.85
2023-01-31T11:29:08.279Z,20.60
2023-01-31T11:31:41.784Z,28.25
2023-01-31T11:34:21.487Z,21.55
2023-01-31T11:36:51.491Z,23.20
2023-01-31T11:39:31.942Z,26.42
2023-01-31T11:42:07.308Z,24.45
2023-01-31T11:44:35.378Z,24.13
2023-01-31T11:47:05.919Z,26.80
2023-01-31T11:49:36.563Z,20.95
2023-01-31T11:52:17.467Z,18.83
2023-01-31T11:54:55.750Z,14.20
2023-01-31T11:57:26.645Z,24.25
2023-01-31T11:59:58.160Z,21.90
2023-01-31T12:02:32.477Z,22.57
2023-01-31T12:05:02.232Z,18.02
2023-01-31T12:07:43.159Z,18.30
2023-01-31T12:10:33.433Z,23.15
2023-01-31T12:13:17.898Z,19.60
2023-01-31T12:15:51.140Z,22.60
2023-01-31T12:21:00.183Z,24.30
2023-01-31T12:23:40.842Z,29.67
2023-01-31T12:26:15.449Z,21.70
2023-01-31T12:29:03.077Z,24.05
2023-01-31T12:31:51.579Z,19.45
2023-01-31T12:34:50.441Z,26.17
2023-01-31T12:37:40.891Z,23.05
2023-01-31T12:40:30.566Z,22.65
2023-01-31T12:43:01.175Z,21.77
2023-01-31T12:45:50.443Z,22.05
2023-01-31T12:48:37.065Z,21.85
2023-01-31T12:51:16.910Z,26.20
2023-01-31T12:53:57.004Z,22.42
2023-01-31T12:56:51.287Z,27.70
2023-01-31T12:59:36.074Z,25.38
2023-01-31T13:02:17.533Z,18.98
2023-01-31T13:04:51.030Z,21.00
2023-01-31T13:07:26.656Z,20.52
2023-01-31T13:09:58.884Z,19.52
2023-01-31T13:12:31.813Z,27.85
2023-01-31T13:15:06.841Z,19.25
2023-01-31T13:17:39.376Z,19.60
2023-01-31T13:20:30.439Z,12.75
2023-01-31T13:23:06.752Z,18.20
2023-01-31T13:25:40.503Z,16.08
2023-01-31T13:28:16.529Z,18.23
2023-01-31T13:30:52.241Z,16.60
2023-01-31T13:33:30.194Z,17.20
2023-01-31T13:36:07.630Z,17.15
2023-01-31T13:38:41.077Z,17.60
2023-01-31T13:41:13.355Z,11.32
2023-01-31T13:43:43.001Z,16.17
2023-01-31T13:46:14.589Z,19.15
2023-01-31T13:48:47.592Z,13.07
2023-01-31T13:51:21.070Z,13.93
2023-01-31T13:53:52.789Z,14.50
2023-01-31T13:56:25.460Z,18.40
2023-01-31T13:58:56.825Z,17.48
2023-01-31T14:01:27.661Z,16.40
2023-01-31T14:04:29.524Z,16.30
2023-01-31T14:07:24.362Z,21.65
2023-01-31T14:10:28.853Z,19.75
2023-01-31T14:13:28.769Z,18.23
2023-01-31T14:15:59.987Z,25.83
2023-01-31T14:18:41.959Z,21.90
2023-01-31T14:21:55.138Z,20.77
2023-01-31T14:25:06.041Z,19.60
2023-01-31T14:27:46.957Z,20.90
2023-01-31T14:30:30.256Z,22.42
2023-01-31T14:33:25.077Z,16.08
2023-01-31T14:36:23.852Z,21.23
2023-01-31T14:39:33.007Z,19.58
2023-01-31T14:42:42.420Z,22.98
2023-01-31T14:45:33.602Z,22.73
2023-01-31T14:48:23.669Z,20.02
2023-01-31T14:51:10.232Z,21.67
2023-01-31T14:53:57.283Z,17.67
2023-01-31T14:56:41.273Z,18.45
2023-01-31T14:59:26.678Z,18.67
2023-01-31T15:01:55.996Z,24.77
2023-01-31T15:04:27.196Z,21.42
2023-01-31T15:06:58.248Z,18.20
2023-01-31T15:09:39.067Z,20.35
2023-01-31T15:12:45.941Z,16.65
2023-01-31T15:15:25.597Z,23.73
2023-01-31T15:17:55.352Z,21.70
2023-01-31T15:20:27.618Z,18.25
2023-01-31T15:23:00.850Z,22.95
2023-01-31T15:25:34.631Z,25.35
2023-01-31T15:28:03.873Z,21.48
2023-01-31T15:30:36.075Z,27.42
2023-01-31T15:33:09.312Z,24.52
2023-01-31T15:35:47.439Z,26.60
2023-01-31T15:38:26.849Z,21.52
2023-01-31T15:41:16.562Z,17.73
2023-01-31T15:43:45.368Z,18.33
2023-01-31T15:46:22.993Z,21.63
2023-01-31T15:48:51.260Z,20.60
2023-01-31T15:51:20.377Z,18.15
2023-01-31T15:53:50.638Z,25.05
2023-01-31T15:56:22.993Z,23.42
2023-01-31T15:58:54.005Z,23.75
2023-01-31T16:01:22.219Z,21.00
2023-01-31T16:03:53.362Z,23.33
2023-01-31T16:06:26.223Z,22.13
2023-01-31T16:09:01.355Z,22.80
2023-01-31T16:11:33.757Z,28.25
2023-01-31T16:16:32.244Z,24.58
2023-01-31T16:19:01.790Z,18.50
2023-01-31T16:21:32.998Z,23.65
2023-01-31T16:24:04.673Z,22.75
2023-01-31T16:26:35.830Z,27.70
2023-01-31T16:29:10.429Z,28.52
2023-01-31T16:31:47.087Z,28.52
2023-01-31T16:34:26.192Z,25.55
2023-01-31T16:36:59.379Z,22.92
2023-01-31T16:39:36.314Z,26.83
2023-01-31T16:42:07.141Z,31.10
2023-01-31T16:44:38.401Z,30.00
2023-01-31T16:47:06.765Z,25.55
2023-01-31T16:49:37.758Z,28.90
2023-01-31T16:52:28.925Z,23.48
2023-01-31T16:55:02.867Z,29.48
2023-01-31T16:57:38.709Z,22.42
2023-01-31T17:00:09.165Z,23.67
2023-01-31T17:02:42.294Z,26.20
2023-01-31T17:05:17.202Z,24.45
2023-01-31T17:07:48.806Z,25.65
2023-01-31T17:10:26.575Z,25.98
2023-01-31T17:13:00.133Z,24.92
2023-01-31T17:15:28.249Z,21.35
2023-01-31T17:17:57.697Z,28.02
2023-01-31T17:20:25.826Z,26.48
2023-01-31T17:23:02.325Z,26.08
2023-01-31T17:25:36.460Z,24.05
2023-01-31T17:28:05.346Z,20.13
2023-01-31T17:30:34.572Z,18.88
2023-01-31T17:33:03.185Z,21.00
2023-01-31T17:35:35.126Z,20.05
2023-01-31T17:38:04.095Z,26.23
2023-01-31T17:40:33.965Z,23.13
2023-01-31T17:43:04.509Z,18.77
2023-01-31T17:45:33.522Z,24.67
2023-01-31T17:48:01.982Z,24.13
2023-01-31T17:50:30.980Z,18.83
2023-01-31T17:52:59.364Z,18.02
2023-01-31T17:55:27.745Z,20.67
2023-01-31T17:57:57.191Z,23.48
2023-01-31T18:00:25.464Z,23.30
2023-01-31T18:02:53.622Z,20.50
2023-01-31T18:05:33.496Z,30.38
2023-01-31T18:08:05.641Z,23.30
2023-01-31T18:10:33.748Z,30.75
2023-01-31T18:13:03.612Z,18.33
2023-01-31T18:15:31.681Z,27.45
2023-01-31T18:17:59.754Z,19.25
2023-01-31T18:20:27.855Z,23.75
2023-01-31T18:22:56.087Z,26.42
2023-01-31T18:25:24.427Z,20.92
2023-01-31T18:27:52.533Z,18.70
2023-01-31T18:30:22.079Z,24.35
2023-01-31T18:32:50.101Z,22.50
2023-01-31T18:35:18.397Z,20.67
2023-01-31T18:37:47.971Z,26.05
2023-01-31T18:40:16.167Z,19.75
2023-01-31T18:42:44.537Z,20.63
2023-01-31T18:45:12.908Z,16.98
2023-01-31T18:47:42.833Z,18.67
2023-01-31T18:50:12.776Z,100.18
2023-01-31T18:52:43.845Z,23.45
2023-01-31T18:55:14.232Z,21.98
2023-01-31T18:57:42.742Z,33.00
2023-01-31T19:00:12.083Z,22.88
2023-01-31T19:02:40.081Z,20.02
2023-01-31T19:05:10.649Z,20.70
2023-01-31T19:07:38.772Z,22.40
2023-01-31T19:10:07.767Z,26.00
2023-01-31T19:12:39.136Z,26.55
2023-01-31T19:15:08.139Z,21.08
2023-01-31T19:17:36.210Z,21.75
2023-01-31T19:20:05.423Z,28.63
2023-01-31T19:22:37.280Z,19.92
2023-01-31T19:25:09.112Z,22.13
2023-01-31T19:27:37.371Z,22.10
2023-01-31T19:30:06.829Z,27.60
2023-01-31T19:32:35.025Z,20.73
2023-01-31T19:35:02.998Z,27.65
2023-01-31T19:37:31.522Z,30.90
2023-01-31T19:40:02.068Z,25.42
2023-01-31T19:42:30.398Z,23.42
2023-01-31T19:44:58.366Z,26.23
2023-01-31T19:47:26.417Z,21.05
2023-01-31T19:49:57.733Z,34.38
2023-01-31T19:52:25.745Z,21.73
2023-01-31T19:54:54.287Z,35.13
2023-01-31T19:57:24.706Z,36.20
2023-01-31T19:59:52.997Z,26.52
2023-01-31T20:02:21.433Z,22.13
2023-01-31T20:04:49.433Z,20.95
2023-01-31T20:07:17.510Z,21.02
2023-01-31T20:09:45.547Z,23.95
2023-01-31T20:12:13.516Z,23.58
2023-01-31T20:14:48.731Z,18.38
2023-01-31T20:17:16.691Z,31.58
2023-01-31T20:19:45.728Z,24.80
2023-01-31T20:22:15.519Z,30.67
2023-01-31T20:24:43.536Z,29.15
2023-01-31T20:27:11.547Z,25.55
2023-01-31T20:29:39.550Z,26.05
2023-01-31T20:32:11.465Z,22.90
2023-01-31T20:34:39.455Z,20.23
2023-01-31T20:37:07.563Z,19.27
2023-01-31T20:39:36.089Z,21.48
2023-01-31T20:42:04.093Z,21.67
2023-01-31T20:44:32.091Z,45.20
2023-01-31T20:47:00.132Z,42.28
2023-01-31T20:49:29.509Z,30.10
2023-01-31T20:51:57.588Z,27.83
2023-01-31T20:54:25.680Z,23.27
2023-01-31T20:56:53.750Z,20.17
2023-01-31T20:59:21.864Z,22.42
2023-01-31T21:01:50.152Z,20.00
2023-01-31T21:04:18.587Z,16.50
2023-01-31T21:06:48.009Z,19.27
2023-01-31T21:09:16.035Z,16.85
2023-01-31T21:11:44.077Z,19.83
2023-01-31T21:14:12.054Z,23.20
2023-01-31T21:16:40.195Z,19.08
2023-01-31T21:19:08.216Z,18.02
2023-01-31T21:21:36.245Z,22.58
2023-01-31T21:24:05.993Z,23.02
2023-01-31T21:26:34.054Z,20.52
2023-01-31T21:29:02.889Z,25.30
2023-01-31T21:31:31.522Z,22.33
2023-01-31T21:34:04.685Z,24.58
2023-01-31T21:36:34.227Z,22.73
2023-01-31T21:39:02.441Z,21.50
2023-01-31T21:41:49.179Z,26.23
2023-01-31T21:44:17.308Z,21.35
2023-01-31T21:46:49.572Z,26.02
2023-01-31T21:49:17.631Z,27.52
2023-01-31T21:51:45.588Z,21.80
2023-01-31T21:54:13.601Z,24.67
2023-01-31T21:56:42.945Z,18.52
2023-01-31T21:59:12.041Z,18.20
2023-01-31T22:01:40.128Z,20.30
2023-01-31T22:04:08.290Z,26.38
2023-01-31T22:06:38.534Z,25.65
2023-01-31T22:09:08.689Z,28.65
2023-01-31T22:11:36.867Z,30.48
2023-01-31T22:14:08.094Z,23.92
2023-01-31T22:16:36.861Z,22.42
2023-01-31T22:19:05.476Z,21.75
2023-01-31T22:21:35.975Z,24.25
2023-01-31T22:24:06.177Z,19.50
2023-01-31T22:26:37.137Z,24.63
2023-01-31T22:29:08.487Z,23.67
2023-01-31T22:31:37.527Z,19.92
2023-01-31T22:34:07.042Z,18.73
2023-01-31T22:36:35.737Z,23.63
2023-01-31T22:39:03.983Z,22.42
2023-01-31T22:41:32.022Z,26.63
2023-01-31T22:44:00.110Z,18.13
2023-01-31T22:46:30.408Z,20.52
2023-01-31T22:48:58.444Z,18.30
2023-01-31T22:51:28.675Z,21.13
2023-01-31T22:53:57.126Z,24.73
2023-01-31T22:56:27.465Z,24.40
2023-01-31T22:59:00.151Z,20.27
2023-01-31T23:01:31.250Z,28.02
2023-01-31T23:04:01.213Z,20.35
2023-01-31T23:06:30.297Z,25.20
2023-01-31T23:08:59.009Z,17.63
2023-01-31T23:11:27.961Z,18.08
2023-01-31T23:13:56.987Z,20.10
2023-01-31T23:16:47.767Z,26.65
2023-01-31T23:19:17.309Z,19.88
2023-01-31T23:21:45.820Z,22.55
2023-01-31T23:24:15.178Z,21.85
2023-01-31T23:26:43.665Z,18.65
2023-01-31T23:29:11.756Z,21.02
2023-01-31T23:31:40.054Z,23.08
2023-01-31T23:34:08.244Z,16.65
2023-01-31T23:36:38.187Z,23.90
2023-01-31T23:39:06.860Z,20.05
2023-01-31T23:41:34.841Z,23.27
2023-01-31T23:44:03.532Z,26.63
2023-01-31T23:46:31.783Z,21.17
2023-01-31T23:48:59.838Z,24.85
2023-01-31T23:51:28.516Z,19.50
2023-01-31T23:53:57.884Z,18.20
2023-01-31T23:56:26.527Z,20.90
2023-01-31T23:58:54.675Z,18.13
